Time;durP1;ratioP1;P1;durP2;ratioP2;P2;SDS_P1;SDS_P2;PMS_P1;PMS_P2;Temp;Humidity;BMP_temperature;BMP_pressure;BME280_temperature;BME280_humidity;BME280_pressure;Samples;Min_cycle;Max_cycle;Signal;HPM_P1;HPM_P2
2021/05/31 00:01:17;;;;;;;;;;;20.30;37.00;;;;;;491438;240;1207;-72
2021/05/31 00:03:19;;;;;;;;;;;20.20;36.90;;;;;;491479;240;1020;-72
2021/05/31 00:05:24;;;;;;;;;;;20.20;36.90;;;;;;491585;240;1073;-72
2021/05/31 00:07:22;;;;;;;;;;;20.20;36.90;;;;;;491532;240;1293;-72
2021/05/31 00:09:24;;;;;;;;;;;20.20;37.00;;;;;;491585;240;1045;-72
2021/05/31 00:11:25;;;;;;;;;;;20.20;37.00;;;;;;491519;240;1051;-72
2021/05/31 00:13:27;;;;;;;;;;;20.20;37.10;;;;;;491497;240;1219;-72
2021/05/31 00:15:28;;;;;;;;;;;20.20;37.10;;;;;;491440;240;998;-72
2021/05/31 00:17:29;;;;;;;;;;;20.20;37.10;;;;;;491412;240;2191;-72
2021/05/31 00:19:30;;;;;;;;;;;20.10;37.10;;;;;;491465;240;1109;-72
2021/05/31 00:21:31;;;;;;;;;;;20.20;37.10;;;;;;491412;240;1053;-72
2021/05/31 00:23:33;;;;;;;;;;;20.10;37.10;;;;;;491524;240;1124;-72
2021/05/31 00:25:34;;;;;;;;;;;20.10;37.20;;;;;;491578;240;1095;-72
2021/05/31 00:27:35;;;;;;;;;;;20.10;37.20;;;;;;491498;240;1099;-72
2021/05/31 00:29:37;;;;;;;;;;;20.10;37.20;;;;;;491579;240;1364;-72
2021/05/31 00:31:38;;;;;;;;;;;20.10;37.20;;;;;;491602;240;1138;-72
2021/05/31 00:33:40;;;;;;;;;;;20.10;37.20;;;;;;491474;240;1015;-72
2021/05/31 00:35:40;;;;;;;;;;;20.10;37.20;;;;;;491551;240;1535;-72
2021/05/31 00:37:42;;;;;;;;;;;20.10;37.30;;;;;;491475;240;2196;-72
2021/05/31 00:39:43;;;;;;;;;;;20.10;37.30;;;;;;491483;240;987;-72
2021/05/31 00:41:47;;;;;;;;;;;20.10;37.20;;;;;;491406;240;1201;-72
2021/05/31 00:43:45;;;;;;;;;;;20.20;37.20;;;;;;491484;240;1373;-72
2021/05/31 00:45:47;;;;;;;;;;;20.10;37.20;;;;;;491401;240;1231;-72
2021/05/31 00:47:48;;;;;;;;;;;20.20;37.30;;;;;;491534;240;966;-72
2021/05/31 00:49:49;;;;;;;;;;;20.20;37.20;;;;;;491536;240;1195;-72
2021/05/31 00:51:51;;;;;;;;;;;20.20;37.30;;;;;;491483;240;1194;-72
2021/05/31 00:53:52;;;;;;;;;;;20.20;37.30;;;;;;491526;240;1051;-72
2021/05/31 00:55:54;;;;;;;;;;;20.20;37.20;;;;;;491523;240;1155;-72
2021/05/31 00:57:55;;;;;;;;;;;20.20;37.20;;;;;;491407;240;2122;-72
2021/05/31 00:59:56;;;;;;;;;;;20.20;37.20;;;;;;491543;240;1204;-72
2021/05/31 01:01:57;;;;;;;;;;;20.20;37.20;;;;;;491431;240;1210;-72
2021/05/31 01:03:59;;;;;;;;;;;20.20;37.20;;;;;;491440;240;1099;-72
2021/05/31 01:06:01;;;;;;;;;;;20.20;37.10;;;;;;491500;240;1146;-72
2021/05/31 01:08:01;;;;;;;;;;;20.20;37.20;;;;;;491456;240;1466;-72
2021/05/31 01:10:03;;;;;;;;;;;20.20;37.30;;;;;;491489;240;1104;-72
2021/05/31 01:12:04;;;;;;;;;;;20.20;37.30;;;;;;491388;240;1206;-72
2021/05/31 01:14:05;;;;;;;;;;;20.20;37.30;;;;;;491586;240;1149;-72
2021/05/31 01:16:06;;;;;;;;;;;20.10;37.30;;;;;;491545;240;1195;-72
2021/05/31 01:18:08;;;;;;;;;;;20.20;37.40;;;;;;491506;240;2136;-72
2021/05/31 01:20:09;;;;;;;;;;;20.20;37.40;;;;;;491663;240;965;-72
2021/05/31 01:22:11;;;;;;;;;;;20.20;37.40;;;;;;491523;240;1164;-72
2021/05/31 01:24:12;;;;;;;;;;;20.20;37.40;;;;;;491528;240;972;-72
2021/05/31 01:26:13;;;;;;;;;;;20.20;37.40;;;;;;491534;240;1361;-72
2021/05/31 01:28:14;;;;;;;;;;;20.20;37.30;;;;;;491527;240;1062;-72
2021/05/31 01:30:21;;;;;;;;;;;20.20;37.40;;;;;;491571;240;1116;-72
2021/05/31 01:32:17;;;;;;;;;;;20.20;37.40;;;;;;491510;240;1422;-72
2021/05/31 01:34:18;;;;;;;;;;;20.20;37.40;;;;;;491511;240;1041;-72
2021/05/31 01:36:19;;;;;;;;;;;20.20;37.30;;;;;;491385;240;1220;-73
2021/05/31 01:38:21;;;;;;;;;;;20.30;37.30;;;;;;491461;240;2280;-72
2021/05/31 01:40:23;;;;;;;;;;;20.20;37.30;;;;;;491523;240;1060;-72
2021/05/31 01:42:24;;;;;;;;;;;20.20;37.30;;;;;;491584;240;1063;-72
2021/05/31 01:44:26;;;;;;;;;;;20.20;37.30;;;;;;491559;240;1169;-72
2021/05/31 01:46:26;;;;;;;;;;;20.20;37.30;;;;;;491483;240;1143;-73
2021/05/31 01:48:28;;;;;;;;;;;20.20;37.30;;;;;;491542;240;957;-72
2021/05/31 01:50:29;;;;;;;;;;;20.20;37.30;;;;;;491544;240;963;-73
2021/05/31 01:52:30;;;;;;;;;;;20.20;37.30;;;;;;491443;240;1095;-72
2021/05/31 01:54:31;;;;;;;;;;;20.20;37.30;;;;;;491553;240;1021;-72
2021/05/31 01:56:33;;;;;;;;;;;20.20;37.30;;;;;;491347;240;2192;-72
2021/05/31 01:58:34;;;;;;;;;;;20.20;37.30;;;;;;491478;240;1134;-72
2021/05/31 02:00:35;;;;;;;;;;;20.20;37.30;;;;;;491443;240;1243;-72
2021/05/31 02:02:37;;;;;;;;;;;20.30;37.30;;;;;;491436;240;1118;-72
2021/05/31 02:04:38;;;;;;;;;;;20.30;37.30;;;;;;491470;240;1029;-72
2021/05/31 02:06:39;;;;;;;;;;;20.20;37.30;;;;;;491466;240;1162;-72
2021/05/31 02:08:40;;;;;;;;;;;20.20;37.40;;;;;;491595;240;1097;-72
2021/05/31 02:10:42;;;;;;;;;;;20.20;37.40;;;;;;491570;240;1288;-72
2021/05/31 02:12:43;;;;;;;;;;;20.20;37.40;;;;;;491529;240;1075;-72
2021/05/31 02:14:44;;;;;;;;;;;20.10;37.40;;;;;;491536;240;1159;-72
2021/05/31 02:16:46;;;;;;;;;;;20.10;37.50;;;;;;491490;240;2187;-72
2021/05/31 02:18:47;;;;;;;;;;;20.10;37.50;;;;;;491559;240;946;-72
2021/05/31 02:20:48;;;;;;;;;;;20.10;37.50;;;;;;491533;240;1033;-72
2021/05/31 02:22:49;;;;;;;;;;;20.10;37.50;;;;;;491519;240;1058;-72
2021/05/31 02:24:51;;;;;;;;;;;20.10;37.50;;;;;;491483;240;1095;-72
2021/05/31 02:26:52;;;;;;;;;;;20.10;37.50;;;;;;491327;240;1113;-72
2021/05/31 02:28:53;;;;;;;;;;;20.10;37.50;;;;;;491515;240;1050;-72
2021/05/31 02:30:55;;;;;;;;;;;20.10;37.50;;;;;;491463;240;1265;-72
2021/05/31 02:32:56;;;;;;;;;;;20.10;37.40;;;;;;491480;240;1103;-72
2021/05/31 02:34:57;;;;;;;;;;;20.10;37.50;;;;;;491609;240;1081;-72
2021/05/31 02:36:58;;;;;;;;;;;20.10;37.40;;;;;;491491;240;2142;-72
2021/05/31 02:39:00;;;;;;;;;;;20.10;37.40;;;;;;491588;240;1016;-72
2021/05/31 02:41:01;;;;;;;;;;;20.10;37.50;;;;;;491514;240;1208;-72
2021/05/31 02:43:02;;;;;;;;;;;20.10;37.40;;;;;;491495;240;1138;-72
2021/05/31 02:45:04;;;;;;;;;;;20.10;37.40;;;;;;491580;240;1074;-72
2021/05/31 02:47:05;;;;;;;;;;;20.10;37.40;;;;;;491422;240;1142;-72
2021/05/31 02:49:07;;;;;;;;;;;20.20;37.40;;;;;;491472;240;990;-72
2021/05/31 02:51:08;;;;;;;;;;;20.20;37.40;;;;;;491337;240;1336;-72
2021/05/31 02:53:09;;;;;;;;;;;20.10;37.30;;;;;;491401;240;1129;-72
2021/05/31 02:55:11;;;;;;;;;;;20.20;37.40;;;;;;491486;240;1052;-72
2021/05/31 02:57:12;;;;;;;;;;;20.20;37.40;;;;;;491319;240;2154;-72
2021/05/31 02:59:14;;;;;;;;;;;20.10;37.40;;;;;;491470;240;937;-72
2021/05/31 03:01:15;;;;;;;;;;;20.10;37.40;;;;;;491446;240;1148;-72
2021/05/31 03:03:16;;;;;;;;;;;20.10;37.40;;;;;;491495;240;1051;-72
2021/05/31 03:05:18;;;;;;;;;;;20.10;37.40;;;;;;491507;240;1084;-72
2021/05/31 03:07:19;;;;;;;;;;;20.10;37.30;;;;;;491438;240;1108;-72
2021/05/31 03:09:20;;;;;;;;;;;20.10;37.30;;;;;;491435;240;1080;-73
2021/05/31 03:11:21;;;;;;;;;;;20.10;37.30;;;;;;491558;240;1071;-72
2021/05/31 03:13:23;;;;;;;;;;;20.10;37.40;;;;;;491445;240;1010;-73
2021/05/31 03:15:24;;;;;;;;;;;20.10;37.40;;;;;;491428;240;1156;-72
2021/05/31 03:17:25;;;;;;;;;;;20.10;37.50;;;;;;491443;240;2152;-72
2021/05/31 03:19:27;;;;;;;;;;;20.00;37.40;;;;;;491478;240;1151;-72
2021/05/31 03:21:28;;;;;;;;;;;20.10;37.40;;;;;;491401;240;1024;-72
2021/05/31 03:23:29;;;;;;;;;;;20.10;37.40;;;;;;491383;240;1044;-73
2021/05/31 03:25:30;;;;;;;;;;;20.00;37.40;;;;;;491457;240;1032;-72
2021/05/31 03:27:32;;;;;;;;;;;20.00;37.40;;;;;;491466;240;940;-72
2021/05/31 03:29:33;;;;;;;;;;;20.00;37.40;;;;;;491555;240;1051;-72
2021/05/31 03:31:34;;;;;;;;;;;20.00;37.40;;;;;;491520;240;1185;-72
2021/05/31 03:33:35;;;;;;;;;;;20.00;37.40;;;;;;491506;240;966;-72
2021/05/31 03:35:37;;;;;;;;;;;20.00;37.40;;;;;;491566;240;1579;-72
2021/05/31 03:37:38;;;;;;;;;;;20.00;37.40;;;;;;491567;240;2149;-72
2021/05/31 03:39:39;;;;;;;;;;;20.00;37.40;;;;;;491462;240;1112;-72
2021/05/31 03:41:41;;;;;;;;;;;20.00;37.40;;;;;;491450;240;1055;-72
2021/05/31 03:43:42;;;;;;;;;;;20.00;37.40;;;;;;491517;240;1050;-72
2021/05/31 03:45:43;;;;;;;;;;;20.00;37.40;;;;;;491426;240;1009;-72
2021/05/31 03:47:44;;;;;;;;;;;20.00;37.40;;;;;;491397;240;1162;-72
2021/05/31 03:49:47;;;;;;;;;;;20.00;37.40;;;;;;491500;240;1059;-72
2021/05/31 03:51:47;;;;;;;;;;;20.00;37.40;;;;;;491462;240;1418;-72
2021/05/31 03:53:48;;;;;;;;;;;20.00;37.40;;;;;;491511;240;1091;-72
2021/05/31 03:55:50;;;;;;;;;;;20.00;37.40;;;;;;491539;240;979;-73
2021/05/31 03:57:51;;;;;;;;;;;20.00;37.40;;;;;;491548;240;2153;-72
2021/05/31 03:59:53;;;;;;;;;;;20.00;37.40;;;;;;491582;240;1067;-72
2021/05/31 04:01:53;;;;;;;;;;;20.00;37.40;;;;;;491493;240;1445;-72
2021/05/31 04:03:55;;;;;;;;;;;20.00;37.40;;;;;;491525;240;967;-72
2021/05/31 04:06:02;;;;;;;;;;;20.00;37.50;;;;;;491427;242;1029;-72
2021/05/31 04:13:00;;;;;;;;;;;20.10;37.50;;;;;;472285;252;1118;-72
2021/05/31 04:15:01;;;;;;;;;;;20.00;37.50;;;;;;473139;243;1128;-72
2021/05/31 04:17:03;;;;;;;;;;;20.00;37.50;;;;;;491452;240;1145;-72
2021/05/31 04:19:04;;;;;;;;;;;20.00;37.50;;;;;;491486;240;2121;-72
2021/05/31 04:21:05;;;;;;;;;;;20.00;37.60;;;;;;491471;240;1069;-72
2021/05/31 04:23:06;;;;;;;;;;;20.00;37.50;;;;;;491574;240;1038;-72
2021/05/31 04:25:08;;;;;;;;;;;20.00;37.50;;;;;;491516;240;1036;-72
2021/05/31 04:27:09;;;;;;;;;;;20.00;37.50;;;;;;491268;240;1115;-72
2021/05/31 04:29:11;;;;;;;;;;;20.10;37.50;;;;;;491445;240;1033;-72
2021/05/31 04:31:12;;;;;;;;;;;20.10;37.60;;;;;;491359;240;1330;-72
2021/05/31 04:33:13;;;;;;;;;;;20.10;37.60;;;;;;491272;240;1159;-72
2021/05/31 04:35:14;;;;;;;;;;;20.10;37.60;;;;;;491365;240;991;-72
2021/05/31 04:37:16;;;;;;;;;;;20.10;37.50;;;;;;491345;240;1112;-72
2021/05/31 04:39:17;;;;;;;;;;;20.10;37.60;;;;;;491265;240;2124;-72
2021/05/31 04:41:18;;;;;;;;;;;20.10;37.60;;;;;;491128;240;1281;-72
2021/05/31 04:43:20;;;;;;;;;;;20.10;37.60;;;;;;491415;240;1281;-72
2021/05/31 04:45:21;;;;;;;;;;;20.10;37.50;;;;;;491383;240;1029;-72
2021/05/31 04:47:22;;;;;;;;;;;20.10;37.50;;;;;;491322;240;1211;-72
2021/05/31 04:49:24;;;;;;;;;;;20.10;37.50;;;;;;491265;240;1049;-71
2021/05/31 04:51:25;;;;;;;;;;;20.20;37.50;;;;;;490986;240;1224;-72
2021/05/31 04:53:26;;;;;;;;;;;20.10;37.50;;;;;;491432;240;1098;-72
2021/05/31 04:55:27;;;;;;;;;;;20.10;37.60;;;;;;491238;240;1074;-72
2021/05/31 04:57:29;;;;;;;;;;;20.10;37.60;;;;;;491238;240;1093;-73
2021/05/31 04:59:30;;;;;;;;;;;20.10;37.60;;;;;;491310;241;2136;-72
2021/05/31 05:01:33;;;;;;;;;;;20.10;37.70;;;;;;491256;241;1282;-72
2021/05/31 05:03:34;;;;;;;;;;;20.10;37.70;;;;;;491211;241;1410;-72
2021/05/31 05:05:34;;;;;;;;;;;20.00;37.70;;;;;;491315;240;1393;-72
2021/05/31 05:07:35;;;;;;;;;;;20.10;37.70;;;;;;491402;240;1103;-72
2021/05/31 05:09:37;;;;;;;;;;;20.10;37.70;;;;;;491427;240;1038;-72
2021/05/31 05:11:38;;;;;;;;;;;20.10;37.70;;;;;;491320;240;1465;-72
2021/05/31 05:13:39;;;;;;;;;;;20.10;37.70;;;;;;491253;240;1046;-72
2021/05/31 05:15:40;;;;;;;;;;;20.20;37.70;;;;;;491220;240;1066;-72
2021/05/31 05:17:41;;;;;;;;;;;20.20;37.70;;;;;;491175;240;2157;-72
2021/05/31 05:19:43;;;;;;;;;;;20.20;37.70;;;;;;491335;240;1095;-72
2021/05/31 05:21:44;;;;;;;;;;;20.10;37.80;;;;;;491088;240;1212;-72
2021/05/31 05:23:46;;;;;;;;;;;20.10;37.80;;;;;;491248;240;1036;-72
2021/05/31 05:25:47;;;;;;;;;;;20.20;37.80;;;;;;491225;240;1515;-72
2021/05/31 05:27:49;;;;;;;;;;;20.20;37.70;;;;;;491128;241;1102;-72
2021/05/31 05:29:50;;;;;;;;;;;20.20;37.80;;;;;;491167;240;1107;-72
2021/05/31 05:31:51;;;;;;;;;;;20.20;37.80;;;;;;491115;240;1203;-73
2021/05/31 05:33:52;;;;;;;;;;;20.20;37.80;;;;;;491201;241;1115;-73
2021/05/31 05:35:56;;;;;;;;;;;20.20;37.90;;;;;;491213;240;1252;-73
2021/05/31 05:38:09;;;;;;;;;;;20.20;37.90;;;;;;491220;241;2244;-73
2021/05/31 05:40:36;;;;;;;;;;;20.20;38.00;;;;;;491257;241;1324;-73
2021/05/31 05:45:08;;;;;;;;;;;20.20;38.00;;;;;;490792;241;1167;-72
2021/05/31 05:49:25;;;;;;;;;;;20.20;38.10;;;;;;490984;240;1128;-72
2021/05/31 05:51:26;;;;;;;;;;;20.20;38.10;;;;;;491024;240;1058;-72
2021/05/31 05:53:28;;;;;;;;;;;20.20;38.20;;;;;;491058;241;1026;-72
2021/05/31 05:55:29;;;;;;;;;;;20.20;38.20;;;;;;490968;241;1088;-72
2021/05/31 05:57:30;;;;;;;;;;;20.20;38.20;;;;;;491049;241;1067;-72
2021/05/31 05:59:32;;;;;;;;;;;20.20;38.30;;;;;;491194;241;2221;-73
2021/05/31 06:01:33;;;;;;;;;;;20.30;38.30;;;;;;491121;240;1305;-73
2021/05/31 06:03:34;;;;;;;;;;;20.20;38.30;;;;;;491135;241;1105;-73
2021/05/31 06:05:35;;;;;;;;;;;20.30;38.40;;;;;;491083;240;1037;-72
2021/05/31 06:07:37;;;;;;;;;;;20.20;38.40;;;;;;490989;240;1032;-72
2021/05/31 06:09:38;;;;;;;;;;;20.30;38.50;;;;;;491025;241;1139;-72
2021/05/31 06:11:39;;;;;;;;;;;20.20;38.50;;;;;;491061;240;1096;-72
2021/05/31 06:13:42;;;;;;;;;;;20.30;38.60;;;;;;490999;240;1103;-72
2021/05/31 06:15:42;;;;;;;;;;;20.20;38.60;;;;;;490921;240;1276;-72
2021/05/31 06:17:44;;;;;;;;;;;20.30;38.60;;;;;;490970;240;1083;-72
2021/05/31 06:19:44;;;;;;;;;;;20.30;38.60;;;;;;490941;240;2171;-72
2021/05/31 06:21:46;;;;;;;;;;;20.40;38.50;;;;;;490608;241;1103;-72
2021/05/31 06:23:47;;;;;;;;;;;20.50;38.30;;;;;;490844;240;1049;-72
2021/05/31 06:25:48;;;;;;;;;;;20.50;38.20;;;;;;489618;240;1119;-72
2021/05/31 06:27:49;;;;;;;;;;;20.60;38.20;;;;;;490049;240;1106;-72
2021/05/31 06:29:51;;;;;;;;;;;20.60;38.20;;;;;;490028;241;1042;-72
2021/05/31 06:31:52;;;;;;;;;;;20.70;38.10;;;;;;490190;240;1135;-72
2021/05/31 06:33:53;;;;;;;;;;;20.80;38.00;;;;;;490844;240;1214;-72
2021/05/31 06:35:55;;;;;;;;;;;20.90;37.90;;;;;;490713;240;1037;-72
2021/05/31 06:37:56;;;;;;;;;;;20.90;37.90;;;;;;490843;240;1331;-73
2021/05/31 06:39:57;;;;;;;;;;;20.80;37.90;;;;;;490880;240;2181;-73
2021/05/31 06:41:58;;;;;;;;;;;20.90;38.00;;;;;;490886;240;1235;-73
2021/05/31 06:44:00;;;;;;;;;;;20.90;38.00;;;;;;490639;240;1088;-72
2021/05/31 06:46:02;;;;;;;;;;;20.90;37.90;;;;;;490688;240;1229;-72
2021/05/31 06:48:03;;;;;;;;;;;21.00;37.80;;;;;;490707;240;1169;-72
2021/05/31 06:50:04;;;;;;;;;;;20.90;37.80;;;;;;490758;240;1106;-72
2021/05/31 06:52:05;;;;;;;;;;;21.00;37.80;;;;;;490637;240;1144;-72
2021/05/31 06:54:06;;;;;;;;;;;21.00;37.90;;;;;;490402;240;1050;-73
2021/05/31 06:56:08;;;;;;;;;;;21.00;37.90;;;;;;490451;240;1090;-73
2021/05/31 06:58:09;;;;;;;;;;;21.00;37.80;;;;;;490536;240;1067;-73
2021/05/31 07:00:10;;;;;;;;;;;21.00;37.80;;;;;;490629;240;2176;-73
2021/05/31 07:02:12;;;;;;;;;;;21.00;37.80;;;;;;490722;240;1287;-73
2021/05/31 07:04:15;;;;;;;;;;;21.10;37.90;;;;;;490490;240;1023;-72
2021/05/31 07:06:14;;;;;;;;;;;21.00;37.90;;;;;;490514;240;1434;-72
2021/05/31 07:08:16;;;;;;;;;;;21.00;38.00;;;;;;490590;240;1135;-72
2021/05/31 07:10:18;;;;;;;;;;;21.00;38.10;;;;;;490759;240;1116;-73
2021/05/31 07:12:19;;;;;;;;;;;21.00;38.20;;;;;;490834;240;1082;-72
2021/05/31 07:14:21;;;;;;;;;;;20.90;38.20;;;;;;490806;240;1213;-72
2021/05/31 07:16:21;;;;;;;;;;;21.00;38.20;;;;;;490681;240;1359;-72
2021/05/31 07:18:22;;;;;;;;;;;21.00;38.10;;;;;;489545;243;2195;-72
2021/05/31 07:20:24;;;;;;;;;;;21.00;38.20;;;;;;489932;240;1124;-72
2021/05/31 07:22:26;;;;;;;;;;;21.00;38.10;;;;;;489738;241;1062;-72
2021/05/31 07:24:27;;;;;;;;;;;21.00;38.10;;;;;;489871;240;1040;-72
2021/05/31 07:26:28;;;;;;;;;;;21.00;38.10;;;;;;489692;240;1070;-72
2021/05/31 07:28:29;;;;;;;;;;;21.00;38.20;;;;;;489908;240;1057;-73
2021/05/31 07:30:31;;;;;;;;;;;21.00;38.10;;;;;;489623;240;1083;-73
2021/05/31 07:32:32;;;;;;;;;;;21.10;38.10;;;;;;489472;240;1349;-73
2021/05/31 07:34:33;;;;;;;;;;;21.20;38.10;;;;;;489521;240;1037;-72
2021/05/31 07:36:34;;;;;;;;;;;21.10;38.00;;;;;;489736;240;1119;-72
2021/05/31 07:38:36;;;;;;;;;;;21.10;38.10;;;;;;489562;240;2181;-73
2021/05/31 07:40:37;;;;;;;;;;;21.20;38.20;;;;;;489732;240;1194;-73
2021/05/31 07:44:48;;;;;;;;;;;21.10;38.30;;;;;;498477;235;2565;-72
2021/05/31 07:46:50;;;;;;;;;;;21.00;38.40;;;;;;502426;237;1160;-72
2021/05/31 07:48:52;;;;;;;;;;;21.10;38.40;;;;;;502463;237;1200;-72
2021/05/31 07:50:53;;;;;;;;;;;21.10;38.40;;;;;;502571;237;1346;-73
2021/05/31 07:52:54;;;;;;;;;;;21.10;38.40;;;;;;502484;237;1670;-72
2021/05/31 07:54:55;;;;;;;;;;;21.10;38.40;;;;;;502332;237;1091;-73
2021/05/31 07:56:58;;;;;;;;;;;21.10;38.40;;;;;;502423;237;1217;-73
2021/05/31 07:58:58;;;;;;;;;;;21.10;38.30;;;;;;502070;237;2132;-72
2021/05/31 08:01:01;;;;;;;;;;;21.10;38.40;;;;;;502236;237;1224;-72
2021/05/31 08:03:01;;;;;;;;;;;21.10;38.30;;;;;;502225;237;1206;-72
2021/05/31 08:05:02;;;;;;;;;;;21.10;38.30;;;;;;502371;237;1106;-73
2021/05/31 08:07:03;;;;;;;;;;;21.10;38.30;;;;;;502341;237;1077;-72
2021/05/31 08:09:05;;;;;;;;;;;21.10;38.30;;;;;;502323;237;1217;-72
2021/05/31 08:11:07;;;;;;;;;;;21.20;38.20;;;;;;502361;237;1074;-72
2021/05/31 08:13:08;;;;;;;;;;;21.20;38.30;;;;;;502423;237;1829;-73
2021/05/31 08:15:09;;;;;;;;;;;21.10;38.30;;;;;;502290;237;1384;-73
2021/05/31 08:17:10;;;;;;;;;;;21.20;38.30;;;;;;502562;237;1056;-73
2021/05/31 08:19:12;;;;;;;;;;;21.20;38.30;;;;;;502071;237;2190;-73
2021/05/31 08:21:13;;;;;;;;;;;21.20;38.40;;;;;;502022;237;1150;-73
2021/05/31 08:23:14;;;;;;;;;;;21.20;38.50;;;;;;502050;237;1117;-73
2021/05/31 08:25:15;;;;;;;;;;;21.20;38.60;;;;;;502123;237;1106;-73
2021/05/31 08:27:17;;;;;;;;;;;21.20;38.60;;;;;;502218;237;1135;-73
2021/05/31 08:29:19;;;;;;;;;;;21.20;38.70;;;;;;502281;237;1192;-73
2021/05/31 08:31:19;;;;;;;;;;;21.20;38.70;;;;;;502238;237;1893;-73
2021/05/31 08:33:21;;;;;;;;;;;21.20;38.80;;;;;;502384;237;1115;-73
2021/05/31 08:35:22;;;;;;;;;;;21.20;38.90;;;;;;502287;237;1101;-73
2021/05/31 08:37:23;;;;;;;;;;;21.20;38.90;;;;;;502272;237;1248;-72
2021/05/31 08:39:25;;;;;;;;;;;21.20;38.90;;;;;;502332;237;2193;-72
2021/05/31 08:41:26;;;;;;;;;;;21.20;39.00;;;;;;502216;237;1159;-72
2021/05/31 08:43:27;;;;;;;;;;;21.20;39.00;;;;;;502255;237;1078;-72
2021/05/31 08:45:30;;;;;;;;;;;21.20;39.10;;;;;;502186;237;1206;-72
2021/05/31 08:47:30;;;;;;;;;;;21.10;39.10;;;;;;502197;237;1325;-72
2021/05/31 08:49:32;;;;;;;;;;;21.10;39.10;;;;;;502286;237;1210;-73
2021/05/31 08:51:33;;;;;;;;;;;21.10;39.00;;;;;;502221;237;1218;-72
2021/05/31 08:53:35;;;;;;;;;;;21.20;39.00;;;;;;502453;237;1101;-72
2021/05/31 08:55:36;;;;;;;;;;;21.20;38.90;;;;;;502136;237;1399;-73
2021/05/31 08:57:37;;;;;;;;;;;21.20;38.80;;;;;;502437;237;1184;-73
2021/05/31 08:59:38;;;;;;;;;;;21.20;38.90;;;;;;502433;237;2135;-73
2021/05/31 09:01:39;;;;;;;;;;;21.20;38.90;;;;;;502291;237;1151;-73
2021/05/31 09:03:41;;;;;;;;;;;21.20;38.90;;;;;;502320;237;1066;-73
2021/05/31 09:05:42;;;;;;;;;;;21.20;38.90;;;;;;502232;237;1103;-73
2021/05/31 09:07:43;;;;;;;;;;;21.20;39.00;;;;;;502082;237;1200;-73
2021/05/31 09:09:46;;;;;;;;;;;21.20;39.00;;;;;;502253;237;1076;-73
2021/05/31 09:11:46;;;;;;;;;;;21.20;39.00;;;;;;502116;237;1341;-73
2021/05/31 09:13:47;;;;;;;;;;;21.20;39.00;;;;;;502260;237;1064;-73
2021/05/31 09:15:48;;;;;;;;;;;21.20;39.00;;;;;;502419;237;1100;-73
2021/05/31 09:17:50;;;;;;;;;;;21.10;39.10;;;;;;502358;237;1088;-72
2021/05/31 09:19:51;;;;;;;;;;;21.20;39.10;;;;;;502357;237;2201;-73
2021/05/31 09:21:52;;;;;;;;;;;21.10;38.90;;;;;;502311;237;1076;-72
2021/05/31 09:23:54;;;;;;;;;;;21.10;39.00;;;;;;502349;237;1054;-72
2021/05/31 09:25:55;;;;;;;;;;;21.10;39.10;;;;;;502970;232;1581;-72
2021/05/31 09:27:56;;;;;;;;;;;21.10;39.00;;;;;;502330;237;1109;-72
2021/05/31 09:29:57;;;;;;;;;;;21.00;39.00;;;;;;502286;237;1140;-72
2021/05/31 09:31:59;;;;;;;;;;;20.90;39.10;;;;;;502209;237;1405;-72
2021/05/31 09:34:00;;;;;;;;;;;21.00;38.90;;;;;;502457;237;1304;-73
2021/05/31 09:36:02;;;;;;;;;;;20.90;39.00;;;;;;502165;233;1176;-72
2021/05/31 09:38:03;;;;;;;;;;;20.90;38.90;;;;;;502217;237;1169;-72
2021/05/31 09:40:04;;;;;;;;;;;20.90;39.00;;;;;;502225;237;2182;-72
2021/05/31 09:42:06;;;;;;;;;;;20.90;39.00;;;;;;502115;237;1277;-72
2021/05/31 09:44:07;;;;;;;;;;;21.10;38.80;;;;;;502144;237;1265;-73
2021/05/31 09:46:08;;;;;;;;;;;21.10;38.60;;;;;;502180;237;1155;-72
2021/05/31 09:48:09;;;;;;;;;;;21.20;38.50;;;;;;502306;237;1184;-72
2021/05/31 09:50:10;;;;;;;;;;;21.30;38.30;;;;;;502340;237;1071;-72
2021/05/31 09:52:13;;;;;;;;;;;21.40;38.10;;;;;;502165;237;1208;-72
2021/05/31 09:54:14;;;;;;;;;;;21.40;38.00;;;;;;502115;237;1286;-72
2021/05/31 09:56:15;;;;;;;;;;;21.40;38.00;;;;;;502299;237;1330;-72
2021/05/31 09:58:16;;;;;;;;;;;21.40;38.00;;;;;;502452;237;1069;-72
2021/05/31 10:00:20;;;;;;;;;;;21.40;37.80;;;;;;502176;237;2178;-72
2021/05/31 10:02:25;;;;;;;;;;;21.50;37.70;;;;;;502123;237;1454;-72
2021/05/31 10:04:31;;;;;;;;;;;21.50;37.60;;;;;;502102;232;1361;-72
2021/05/31 10:06:41;;;;;;;;;;;21.50;37.50;;;;;;502161;232;1219;-72
2021/05/31 10:08:43;;;;;;;;;;;21.50;37.50;;;;;;501543;237;1482;-72
2021/05/31 10:10:43;;;;;;;;;;;21.50;37.50;;;;;;502435;237;1202;-73
2021/05/31 10:12:44;;;;;;;;;;;21.60;37.40;;;;;;502279;237;1265;-72
2021/05/31 10:14:46;;;;;;;;;;;21.60;37.30;;;;;;502289;237;1087;-72
2021/05/31 10:16:47;;;;;;;;;;;21.60;37.10;;;;;;502328;237;1295;-72
2021/05/31 10:18:48;;;;;;;;;;;21.70;37.10;;;;;;502311;237;1190;-73
2021/05/31 10:20:49;;;;;;;;;;;21.70;37.00;;;;;;502079;237;2194;-73
2021/05/31 10:22:51;;;;;;;;;;;21.70;37.00;;;;;;502392;237;1384;-73
2021/05/31 10:24:52;;;;;;;;;;;21.60;37.10;;;;;;502283;237;1088;-73
2021/05/31 10:26:53;;;;;;;;;;;21.60;37.30;;;;;;502201;232;1210;-73
2021/05/31 10:28:54;;;;;;;;;;;21.60;37.40;;;;;;502351;237;1194;-73
2021/05/31 10:30:56;;;;;;;;;;;21.60;37.50;;;;;;502136;237;1117;-72
2021/05/31 10:32:57;;;;;;;;;;;21.60;37.30;;;;;;502072;237;1064;-72
2021/05/31 10:34:58;;;;;;;;;;;21.70;37.30;;;;;;502217;237;1054;-72
2021/05/31 10:37:00;;;;;;;;;;;21.70;37.20;;;;;;502290;237;1251;-72
2021/05/31 10:39:01;;;;;;;;;;;21.70;37.10;;;;;;502360;237;1145;-72
2021/05/31 10:41:02;;;;;;;;;;;21.80;36.90;;;;;;502253;237;2178;-72
2021/05/31 10:43:04;;;;;;;;;;;21.70;36.90;;;;;;502355;237;1099;-72
2021/05/31 10:45:06;;;;;;;;;;;21.70;37.00;;;;;;502248;237;1152;-72
2021/05/31 10:47:07;;;;;;;;;;;21.70;37.10;;;;;;502144;237;1348;-72
2021/05/31 10:49:08;;;;;;;;;;;21.70;36.80;;;;;;502400;237;1166;-72
2021/05/31 10:51:09;;;;;;;;;;;21.70;36.90;;;;;;502192;237;1300;-72
2021/05/31 10:53:10;;;;;;;;;;;21.80;36.90;;;;;;502213;237;1089;-72
2021/05/31 10:55:12;;;;;;;;;;;21.70;37.00;;;;;;502253;237;1056;-72
2021/05/31 10:57:13;;;;;;;;;;;21.80;36.90;;;;;;502072;237;1425;-72
2021/05/31 10:59:14;;;;;;;;;;;21.70;36.90;;;;;;501855;237;1096;-72
2021/05/31 11:01:17;;;;;;;;;;;21.80;36.90;;;;;;501969;237;2171;-72
2021/05/31 11:03:17;;;;;;;;;;;21.80;36.70;;;;;;501911;237;1270;-72
2021/05/31 11:05:18;;;;;;;;;;;21.80;36.70;;;;;;502087;237;1095;-72
2021/05/31 11:07:19;;;;;;;;;;;21.80;36.80;;;;;;502134;237;1420;-72
2021/05/31 11:09:21;;;;;;;;;;;21.70;36.80;;;;;;502263;237;1082;-72
2021/05/31 11:11:22;;;;;;;;;;;21.70;36.80;;;;;;502219;237;1221;-72
2021/05/31 11:13:23;;;;;;;;;;;21.70;36.80;;;;;;502371;237;1109;-72
2021/05/31 11:15:25;;;;;;;;;;;21.80;36.90;;;;;;502226;237;1083;-72
2021/05/31 11:17:26;;;;;;;;;;;21.80;36.90;;;;;;502351;237;1178;-72
2021/05/31 11:19:27;;;;;;;;;;;21.70;36.80;;;;;;502436;237;1092;-72
2021/05/31 11:21:29;;;;;;;;;;;21.80;36.90;;;;;;502386;237;2186;-72
2021/05/31 11:23:30;;;;;;;;;;;21.80;36.90;;;;;;502461;237;1036;-72
2021/05/31 11:25:31;;;;;;;;;;;21.70;36.80;;;;;;502300;237;1106;-72
2021/05/31 11:27:34;;;;;;;;;;;21.70;36.80;;;;;;502352;237;1100;-72
2021/05/31 11:29:34;;;;;;;;;;;21.60;37.00;;;;;;502203;237;1317;-72
2021/05/31 11:31:35;;;;;;;;;;;21.60;37.10;;;;;;502340;237;1312;-72
2021/05/31 11:33:36;;;;;;;;;;;21.60;37.20;;;;;;502483;237;1203;-72
2021/05/31 11:35:37;;;;;;;;;;;21.60;37.10;;;;;;502441;237;1060;-72
2021/05/31 11:37:40;;;;;;;;;;;21.60;37.20;;;;;;502532;237;1095;-72
2021/05/31 11:39:40;;;;;;;;;;;21.60;37.10;;;;;;502396;237;1384;-72
2021/05/31 11:41:42;;;;;;;;;;;21.60;37.00;;;;;;502233;237;2182;-72
2021/05/31 11:43:43;;;;;;;;;;;21.60;37.20;;;;;;502170;237;1390;-72
2021/05/31 11:45:45;;;;;;;;;;;21.50;37.10;;;;;;502234;237;1101;-72
2021/05/31 11:47:45;;;;;;;;;;;21.50;37.10;;;;;;502239;237;1241;-72
2021/05/31 11:49:47;;;;;;;;;;;21.50;37.10;;;;;;502304;237;1131;-72
2021/05/31 11:51:48;;;;;;;;;;;21.50;37.20;;;;;;502156;237;1119;-72
2021/05/31 11:53:49;;;;;;;;;;;21.40;37.10;;;;;;502083;237;1327;-72
2021/05/31 11:55:50;;;;;;;;;;;21.40;37.20;;;;;;502154;237;1056;-72
2021/05/31 11:57:52;;;;;;;;;;;21.50;37.20;;;;;;502224;237;1048;-72
2021/05/31 11:59:53;;;;;;;;;;;21.50;37.20;;;;;;501836;237;2174;-72
2021/05/31 12:01:54;;;;;;;;;;;21.40;36.80;;;;;;501848;237;1182;-72
2021/05/31 12:03:56;;;;;;;;;;;21.30;37.10;;;;;;502260;237;1090;-72
2021/05/31 12:05:57;;;;;;;;;;;21.20;37.10;;;;;;502773;237;1264;-72
2021/05/31 12:07:58;;;;;;;;;;;21.20;37.30;;;;;;503134;237;1086;-72
2021/05/31 12:09:59;;;;;;;;;;;21.10;37.40;;;;;;502610;237;1206;-72